sensor_id;sensor_type;location;lat;lon;timestamp;temperature;humidity
21387;DHT22;10854;45.922;6.716;2023-04-07T00:02:07;7.60;67.70
21387;DHT22;10854;45.922;6.716;2023-04-07T00:04:36;7.60;67.80
21387;DHT22;10854;45.922;6.716;2023-04-07T00:07:04;7.50;68.00
21387;DHT22;10854;45.922;6.716;2023-04-07T00:09:33;7.50;68.20
21387;DHT22;10854;45.922;6.716;2023-04-07T00:12:02;7.50;68.30
21387;DHT22;10854;45.922;6.716;2023-04-07T00:14:31;7.50;68.30
21387;DHT22;10854;45.922;6.716;2023-04-07T00:17:02;7.40;68.30
21387;DHT22;10854;45.922;6.716;2023-04-07T00:19:31;7.40;68.40
21387;DHT22;10854;45.922;6.716;2023-04-07T00:22:00;7.40;68.50
21387;DHT22;10854;45.922;6.716;2023-04-07T00:24:29;7.40;68.60
21387;DHT22;10854;45.922;6.716;2023-04-07T00:27:00;7.30;68.60
21387;DHT22;10854;45.922;6.716;2023-04-07T00:29:28;7.20;68.70
21387;DHT22;10854;45.922;6.716;2023-04-07T00:31:57;7.20;68.70
21387;DHT22;10854;45.922;6.716;2023-04-07T00:34:26;7.10;68.70
21387;DHT22;10854;45.922;6.716;2023-04-07T00:36:54;7.10;68.80
21387;DHT22;10854;45.922;6.716;2023-04-07T00:39:22;7.00;68.50
21387;DHT22;10854;45.922;6.716;2023-04-07T00:41:51;7.00;68.80
21387;DHT22;10854;45.922;6.716;2023-04-07T00:44:20;6.90;68.60
21387;DHT22;10854;45.922;6.716;2023-04-07T00:46:48;6.80;68.40
21387;DHT22;10854;45.922;6.716;2023-04-07T00:49:16;6.80;68.20
21387;DHT22;10854;45.922;6.716;2023-04-07T00:51:45;6.70;67.80
21387;DHT22;10854;45.922;6.716;2023-04-07T00:54:14;6.60;67.60
21387;DHT22;10854;45.922;6.716;2023-04-07T00:56:42;6.50;67.90
21387;DHT22;10854;45.922;6.716;2023-04-07T00:59:11;6.40;69.20
21387;DHT22;10854;45.922;6.716;2023-04-07T01:02:10;6.10;68.70
21387;DHT22;10854;45.922;6.716;2023-04-07T01:04:55;5.90;69.40
21387;DHT22;10854;45.922;6.716;2023-04-07T01:07:34;5.70;69.60
21387;DHT22;10854;45.922;6.716;2023-04-07T01:10:07;5.50;69.90
21387;DHT22;10854;45.922;6.716;2023-04-07T01:15:12;5.30;70.80
21387;DHT22;10854;45.922;6.716;2023-04-07T01:17:56;5.20;71.40
21387;DHT22;10854;45.922;6.716;2023-04-07T01:20:29;5.00;71.60
21387;DHT22;10854;45.922;6.716;2023-04-07T01:23:04;4.90;71.80
21387;DHT22;10854;45.922;6.716;2023-04-07T01:31:08;4.80;72.60
21387;DHT22;10854;45.922;6.716;2023-04-07T01:33:38;4.80;72.70
21387;DHT22;10854;45.922;6.716;2023-04-07T01:36:11;4.80;73.00
21387;DHT22;10854;45.922;6.716;2023-04-07T01:38:41;4.80;73.20
21387;DHT22;10854;45.922;6.716;2023-04-07T01:41:11;5.00;73.40
21387;DHT22;10854;45.922;6.716;2023-04-07T01:43:42;5.00;72.90
21387;DHT22;10854;45.922;6.716;2023-04-07T01:46:13;5.10;72.70
21387;DHT22;10854;45.922;6.716;2023-04-07T01:48:42;5.20;72.30
21387;DHT22;10854;45.922;6.716;2023-04-07T01:51:11;5.30;72.20
21387;DHT22;10854;45.922;6.716;2023-04-07T01:53:47;5.30;72.20
21387;DHT22;10854;45.922;6.716;2023-04-07T01:56:16;5.30;72.20
21387;DHT22;10854;45.922;6.716;2023-04-07T01:58:45;5.30;72.20
21387;DHT22;10854;45.922;6.716;2023-04-07T02:01:14;5.40;72.30
21387;DHT22;10854;45.922;6.716;2023-04-07T02:04:05;5.40;72.30
21387;DHT22;10854;45.922;6.716;2023-04-07T02:06:42;5.50;72.20
21387;DHT22;10854;45.922;6.716;2023-04-07T02:09:14;5.60;71.80
21387;DHT22;10854;45.922;6.716;2023-04-07T02:11:45;5.70;71.70
21387;DHT22;10854;45.922;6.716;2023-04-07T02:14:13;5.70;71.80
21387;DHT22;10854;45.922;6.716;2023-04-07T02:16:45;5.70;71.80
21387;DHT22;10854;45.922;6.716;2023-04-07T02:19:15;5.70;71.80
21387;DHT22;10854;45.922;6.716;2023-04-07T02:21:45;5.70;71.80
21387;DHT22;10854;45.922;6.716;2023-04-07T02:24:19;5.70;71.80
21387;DHT22;10854;45.922;6.716;2023-04-07T02:26:48;5.70;71.60
21387;DHT22;10854;45.922;6.716;2023-04-07T02:29:17;5.80;71.60
21387;DHT22;10854;45.922;6.716;2023-04-07T02:31:45;5.80;71.60
21387;DHT22;10854;45.922;6.716;2023-04-07T02:34:13;5.80;71.70
21387;DHT22;10854;45.922;6.716;2023-04-07T02:36:42;5.70;71.80
21387;DHT22;10854;45.922;6.716;2023-04-07T02:39:10;5.70;71.80
21387;DHT22;10854;45.922;6.716;2023-04-07T02:41:39;5.60;71.90
21387;DHT22;10854;45.922;6.716;2023-04-07T02:44:08;5.60;71.80
21387;DHT22;10854;45.922;6.716;2023-04-07T02:46:36;5.60;71.90
21387;DHT22;10854;45.922;6.716;2023-04-07T02:49:04;5.60;71.80
21387;DHT22;10854;45.922;6.716;2023-04-07T02:51:33;5.60;71.80
21387;DHT22;10854;45.922;6.716;2023-04-07T02:54:01;5.60;71.70
21387;DHT22;10854;45.922;6.716;2023-04-07T02:56:30;5.70;71.60
21387;DHT22;10854;45.922;6.716;2023-04-07T02:58:59;5.70;71.60
21387;DHT22;10854;45.922;6.716;2023-04-07T03:01:28;5.80;71.30
21387;DHT22;10854;45.922;6.716;2023-04-07T03:03:56;5.80;71.10
21387;DHT22;10854;45.922;6.716;2023-04-07T03:06:24;5.80;70.80
21387;DHT22;10854;45.922;6.716;2023-04-07T03:08:53;5.80;70.50
21387;DHT22;10854;45.922;6.716;2023-04-07T03:11:23;5.80;70.50
21387;DHT22;10854;45.922;6.716;2023-04-07T03:13:51;5.70;70.80
21387;DHT22;10854;45.922;6.716;2023-04-07T03:16:20;5.70;71.40
21387;DHT22;10854;45.922;6.716;2023-04-07T03:18:48;5.70;71.60
21387;DHT22;10854;45.922;6.716;2023-04-07T03:21:17;5.60;71.80
21387;DHT22;10854;45.922;6.716;2023-04-07T03:23:45;5.60;72.40
21387;DHT22;10854;45.922;6.716;2023-04-07T03:26:14;5.50;72.60
21387;DHT22;10854;45.922;6.716;2023-04-07T03:28:42;5.40;73.00
21387;DHT22;10854;45.922;6.716;2023-04-07T03:31:11;5.30;73.30
21387;DHT22;10854;45.922;6.716;2023-04-07T03:33:39;5.20;73.70
21387;DHT22;10854;45.922;6.716;2023-04-07T03:36:07;5.20;74.00
21387;DHT22;10854;45.922;6.716;2023-04-07T03:38:37;5.10;74.80
21387;DHT22;10854;45.922;6.716;2023-04-07T03:41:06;5.10;74.00
21387;DHT22;10854;45.922;6.716;2023-04-07T03:43:35;5.00;73.90
21387;DHT22;10854;45.922;6.716;2023-04-07T03:46:04;5.00;74.00
21387;DHT22;10854;45.922;6.716;2023-04-07T03:48:32;5.00;74.20
21387;DHT22;10854;45.922;6.716;2023-04-07T03:51:00;5.10;74.20
21387;DHT22;10854;45.922;6.716;2023-04-07T03:53:29;5.10;73.80
21387;DHT22;10854;45.922;6.716;2023-04-07T03:55:58;5.20;73.50
21387;DHT22;10854;45.922;6.716;2023-04-07T03:58:26;5.20;73.10
21387;DHT22;10854;45.922;6.716;2023-04-07T04:00:55;5.40;72.90
21387;DHT22;10854;45.922;6.716;2023-04-07T04:03:23;5.40;72.40
21387;DHT22;10854;45.922;6.716;2023-04-07T04:05:52;5.50;72.20
21387;DHT22;10854;45.922;6.716;2023-04-07T04:08:20;5.50;71.80
21387;DHT22;10854;45.922;6.716;2023-04-07T04:10:48;5.50;71.50
21387;DHT22;10854;45.922;6.716;2023-04-07T04:13:18;5.50;71.00
21387;DHT22;10854;45.922;6.716;2023-04-07T04:15:46;5.60;70.60
21387;DHT22;10854;45.922;6.716;2023-04-07T04:18:15;5.70;70.30
21387;DHT22;10854;45.922;6.716;2023-04-07T04:20:44;5.70;70.00
21387;DHT22;10854;45.922;6.716;2023-04-07T04:23:13;5.80;70.30
21387;DHT22;10854;45.922;6.716;2023-04-07T04:25:41;5.70;70.10
21387;DHT22;10854;45.922;6.716;2023-04-07T04:28:10;5.60;70.30
21387;DHT22;10854;45.922;6.716;2023-04-07T04:30:39;5.50;70.50
21387;DHT22;10854;45.922;6.716;2023-04-07T04:33:07;5.50;70.80
21387;DHT22;10854;45.922;6.716;2023-04-07T04:35:36;5.50;70.80
21387;DHT22;10854;45.922;6.716;2023-04-07T04:38:04;5.50;70.80
21387;DHT22;10854;45.922;6.716;2023-04-07T04:40:32;5.50;70.70
21387;DHT22;10854;45.922;6.716;2023-04-07T04:43:01;5.60;70.50
21387;DHT22;10854;45.922;6.716;2023-04-07T04:45:33;5.60;70.20
21387;DHT22;10854;45.922;6.716;2023-04-07T04:48:02;5.70;70.00
21387;DHT22;10854;45.922;6.716;2023-04-07T04:50:33;5.70;69.50
21387;DHT22;10854;45.922;6.716;2023-04-07T04:53:01;5.80;69.50
21387;DHT22;10854;45.922;6.716;2023-04-07T04:55:29;5.80;69.40
21387;DHT22;10854;45.922;6.716;2023-04-07T04:58:00;5.80;70.30
21387;DHT22;10854;45.922;6.716;2023-04-07T05:00:29;5.80;70.10
21387;DHT22;10854;45.922;6.716;2023-04-07T05:02:57;5.70;70.30
21387;DHT22;10854;45.922;6.716;2023-04-07T05:05:26;5.70;71.00
21387;DHT22;10854;45.922;6.716;2023-04-07T05:07:56;5.60;71.60
21387;DHT22;10854;45.922;6.716;2023-04-07T05:10:24;5.50;71.90
21387;DHT22;10854;45.922;6.716;2023-04-07T05:12:52;5.50;72.10
21387;DHT22;10854;45.922;6.716;2023-04-07T05:15:21;5.50;72.00
21387;DHT22;10854;45.922;6.716;2023-04-07T05:17:49;5.50;71.70
21387;DHT22;10854;45.922;6.716;2023-04-07T05:20:18;5.60;71.50
21387;DHT22;10854;45.922;6.716;2023-04-07T05:22:46;5.70;70.80
21387;DHT22;10854;45.922;6.716;2023-04-07T05:25:16;5.90;70.40
21387;DHT22;10854;45.922;6.716;2023-04-07T05:27:44;6.00;69.80
21387;DHT22;10854;45.922;6.716;2023-04-07T05:30:13;6.10;70.10
21387;DHT22;10854;45.922;6.716;2023-04-07T05:32:42;6.20;69.00
21387;DHT22;10854;45.922;6.716;2023-04-07T05:35:11;6.30;68.90
21387;DHT22;10854;45.922;6.716;2023-04-07T05:37:39;6.30;68.70
21387;DHT22;10854;45.922;6.716;2023-04-07T05:40:09;6.40;68.80
21387;DHT22;10854;45.922;6.716;2023-04-07T05:42:38;6.30;68.90
21387;DHT22;10854;45.922;6.716;2023-04-07T05:45:07;6.40;69.10
21387;DHT22;10854;45.922;6.716;2023-04-07T05:47:35;6.40;69.10
21387;DHT22;10854;45.922;6.716;2023-04-07T05:50:04;6.40;69.20
21387;DHT22;10854;45.922;6.716;2023-04-07T05:52:34;6.40;69.40
21387;DHT22;10854;45.922;6.716;2023-04-07T05:55:02;6.40;70.20
21387;DHT22;10854;45.922;6.716;2023-04-07T05:57:31;6.30;70.40
21387;DHT22;10854;45.922;6.716;2023-04-07T06:00:00;6.30;71.10
21387;DHT22;10854;45.922;6.716;2023-04-07T06:02:28;6.30;71.30
21387;DHT22;10854;45.922;6.716;2023-04-07T06:04:58;6.20;71.30
21387;DHT22;10854;45.922;6.716;2023-04-07T06:07:26;6.20;71.40
21387;DHT22;10854;45.922;6.716;2023-04-07T06:09:55;6.20;71.30
21387;DHT22;10854;45.922;6.716;2023-04-07T06:12:23;6.30;71.30
21387;DHT22;10854;45.922;6.716;2023-04-07T06:14:53;6.30;71.10
21387;DHT22;10854;45.922;6.716;2023-04-07T06:17:22;6.40;71.30
21387;DHT22;10854;45.922;6.716;2023-04-07T06:19:51;6.40;71.70
21387;DHT22;10854;45.922;6.716;2023-04-07T06:22:31;6.50;73.00
21387;DHT22;10854;45.922;6.716;2023-04-07T06:24:59;6.50;74.50
21387;DHT22;10854;45.922;6.716;2023-04-07T06:27:28;6.40;76.20
21387;DHT22;10854;45.922;6.716;2023-04-07T06:29:56;6.40;77.90
21387;DHT22;10854;45.922;6.716;2023-04-07T06:32:25;6.20;77.60
21387;DHT22;10854;45.922;6.716;2023-04-07T06:34:53;6.10;77.90
21387;DHT22;10854;45.922;6.716;2023-04-07T06:37:22;6.10;80.90
21387;DHT22;10854;45.922;6.716;2023-04-07T06:39:52;6.00;82.00
21387;DHT22;10854;45.922;6.716;2023-04-07T06:42:20;5.90;82.30
21387;DHT22;10854;45.922;6.716;2023-04-07T06:44:48;5.80;83.10
21387;DHT22;10854;45.922;6.716;2023-04-07T06:47:20;5.70;84.10
21387;DHT22;10854;45.922;6.716;2023-04-07T06:49:55;5.70;86.20
21387;DHT22;10854;45.922;6.716;2023-04-07T06:52:24;5.60;88.00
21387;DHT22;10854;45.922;6.716;2023-04-07T06:54:52;5.50;90.90
21387;DHT22;10854;45.922;6.716;2023-04-07T06:57:23;5.50;92.10
21387;DHT22;10854;45.922;6.716;2023-04-07T06:59:52;5.40;93.70
21387;DHT22;10854;45.922;6.716;2023-04-07T07:02:23;5.40;95.90
21387;DHT22;10854;45.922;6.716;2023-04-07T07:04:52;5.30;96.90
21387;DHT22;10854;45.922;6.716;2023-04-07T07:07:21;5.40;99.90
21387;DHT22;10854;45.922;6.716;2023-04-07T07:09:52;5.40;99.90
21387;DHT22;10854;45.922;6.716;2023-04-07T07:12:21;5.30;99.90
21387;DHT22;10854;45.922;6.716;2023-04-07T07:14:50;5.30;99.90
21387;DHT22;10854;45.922;6.716;2023-04-07T07:17:19;5.30;99.90
21387;DHT22;10854;45.922;6.716;2023-04-07T07:19:47;5.20;99.90
21387;DHT22;10854;45.922;6.716;2023-04-07T07:22:17;5.20;99.90
21387;DHT22;10854;45.922;6.716;2023-04-07T07:24:45;5.20;99.90
21387;DHT22;10854;45.922;6.716;2023-04-07T07:27:13;5.20;99.90
21387;DHT22;10854;45.922;6.716;2023-04-07T07:29:42;5.20;99.90
21387;DHT22;10854;45.922;6.716;2023-04-07T07:32:11;5.20;99.90
21387;DHT22;10854;45.922;6.716;2023-04-07T07:34:39;5.20;99.90
21387;DHT22;10854;45.922;6.716;2023-04-07T07:37:08;5.20;99.90
21387;DHT22;10854;45.922;6.716;2023-04-07T07:39:36;5.10;99.90
21387;DHT22;10854;45.922;6.716;2023-04-07T07:42:05;5.10;99.90
21387;DHT22;10854;45.922;6.716;2023-04-07T07:44:33;5.00;99.90
21387;DHT22;10854;45.922;6.716;2023-04-07T07:47:02;4.90;99.90
21387;DHT22;10854;45.922;6.716;2023-04-07T07:49:30;4.90;99.90
21387;DHT22;10854;45.922;6.716;2023-04-07T07:51:58;4.70;99.90
21387;DHT22;10854;45.922;6.716;2023-04-07T07:54:27;4.70;99.90
21387;DHT22;10854;45.922;6.716;2023-04-07T07:56:56;4.50;99.90
21387;DHT22;10854;45.922;6.716;2023-04-07T07:59:25;4.40;99.90
21387;DHT22;10854;45.922;6.716;2023-04-07T08:01:53;4.40;99.90
21387;DHT22;10854;45.922;6.716;2023-04-07T08:04:22;4.40;99.90
21387;DHT22;10854;45.922;6.716;2023-04-07T08:06:51;4.30;99.90
21387;DHT22;10854;45.922;6.716;2023-04-07T08:09:20;4.30;99.90
21387;DHT22;10854;45.922;6.716;2023-04-07T08:11:48;4.20;99.90
21387;DHT22;10854;45.922;6.716;2023-04-07T08:14:18;4.20;99.90
21387;DHT22;10854;45.922;6.716;2023-04-07T08:16:47;4.20;99.90
21387;DHT22;10854;45.922;6.716;2023-04-07T08:19:15;4.10;99.90
21387;DHT22;10854;45.922;6.716;2023-04-07T08:21:43;4.10;99.90
21387;DHT22;10854;45.922;6.716;2023-04-07T08:24:12;4.00;99.90
21387;DHT22;10854;45.922;6.716;2023-04-07T08:26:40;4.10;99.90
21387;DHT22;10854;45.922;6.716;2023-04-07T08:29:28;4.10;99.90
21387;DHT22;10854;45.922;6.716;2023-04-07T08:31:57;4.10;99.90
21387;DHT22;10854;45.922;6.716;2023-04-07T08:34:25;4.10;99.90
21387;DHT22;10854;45.922;6.716;2023-04-07T08:36:54;4.10;99.90
21387;DHT22;10854;45.922;6.716;2023-04-07T08:39:23;4.20;99.90
21387;DHT22;10854;45.922;6.716;2023-04-07T08:41:53;4.30;99.90
21387;DHT22;10854;45.922;6.716;2023-04-07T08:44:22;4.40;99.90
21387;DHT22;10854;45.922;6.716;2023-04-07T08:46:55;4.50;99.90
21387;DHT22;10854;45.922;6.716;2023-04-07T08:49:27;4.70;99.90
21387;DHT22;10854;45.922;6.716;2023-04-07T08:51:59;4.90;99.90
21387;DHT22;10854;45.922;6.716;2023-04-07T08:54:30;5.00;99.90
21387;DHT22;10854;45.922;6.716;2023-04-07T08:57:02;5.00;99.90
21387;DHT22;10854;45.922;6.716;2023-04-07T08:59:31;5.10;99.90
21387;DHT22;10854;45.922;6.716;2023-04-07T09:02:01;5.20;99.90
21387;DHT22;10854;45.922;6.716;2023-04-07T09:04:29;5.40;99.90
21387;DHT22;10854;45.922;6.716;2023-04-07T09:06:59;5.50;99.90
21387;DHT22;10854;45.922;6.716;2023-04-07T09:09:29;5.70;99.90
21387;DHT22;10854;45.922;6.716;2023-04-07T09:11:58;5.80;99.90
21387;DHT22;10854;45.922;6.716;2023-04-07T09:14:26;6.00;99.90
21387;DHT22;10854;45.922;6.716;2023-04-07T09:16:55;6.10;99.90
21387;DHT22;10854;45.922;6.716;2023-04-07T09:19:25;6.30;99.90
21387;DHT22;10854;45.922;6.716;2023-04-07T09:21:54;6.50;99.90
21387;DHT22;10854;45.922;6.716;2023-04-07T09:24:27;6.70;99.90
21387;DHT22;10854;45.922;6.716;2023-04-07T09:27:15;7.00;99.90
21387;DHT22;10854;45.922;6.716;2023-04-07T09:29:46;7.30;99.90
21387;DHT22;10854;45.922;6.716;2023-04-07T09:32:34;7.60;99.90
21387;DHT22;10854;45.922;6.716;2023-04-07T09:35:04;8.00;99.90
21387;DHT22;10854;45.922;6.716;2023-04-07T09:37:32;8.40;99.90
21387;DHT22;10854;45.922;6.716;2023-04-07T09:40:01;9.00;99.90
21387;DHT22;10854;45.922;6.716;2023-04-07T09:42:30;9.80;99.90
21387;DHT22;10854;45.922;6.716;2023-04-07T09:45:02;11.00;99.90
21387;DHT22;10854;45.922;6.716;2023-04-07T09:47:31;12.10;98.80
21387;DHT22;10854;45.922;6.716;2023-04-07T09:50:00;12.70;86.70
21387;DHT22;10854;45.922;6.716;2023-04-07T09:52:50;12.90;79.30
21387;DHT22;10854;45.922;6.716;2023-04-07T09:55:20;13.30;77.90
21387;DHT22;10854;45.922;6.716;2023-04-07T09:57:50;13.60;75.20
21387;DHT22;10854;45.922;6.716;2023-04-07T10:00:18;13.70;72.40
21387;DHT22;10854;45.922;6.716;2023-04-07T10:02:50;13.90;74.10
21387;DHT22;10854;45.922;6.716;2023-04-07T10:05:19;14.50;73.10
21387;DHT22;10854;45.922;6.716;2023-04-07T10:07:49;15.00;68.80
21387;DHT22;10854;45.922;6.716;2023-04-07T10:10:18;15.20;67.70
21387;DHT22;10854;45.922;6.716;2023-04-07T10:12:48;15.50;67.40
21387;DHT22;10854;45.922;6.716;2023-04-07T10:15:17;15.80;68.10
21387;DHT22;10854;45.922;6.716;2023-04-07T10:17:46;16.40;68.80
21387;DHT22;10854;45.922;6.716;2023-04-07T10:20:19;16.90;66.90
21387;DHT22;10854;45.922;6.716;2023-04-07T10:22:51;16.80;63.20
21387;DHT22;10854;45.922;6.716;2023-04-07T10:25:23;16.20;61.10
21387;DHT22;10854;45.922;6.716;2023-04-07T10:27:59;16.00;62.00
21387;DHT22;10854;45.922;6.716;2023-04-07T10:30:31;15.70;62.20
21387;DHT22;10854;45.922;6.716;2023-04-07T10:33:02;15.60;63.00
21387;DHT22;10854;45.922;6.716;2023-04-07T10:36:02;15.80;63.40
21387;DHT22;10854;45.922;6.716;2023-04-07T10:38:31;16.10;62.40
21387;DHT22;10854;45.922;6.716;2023-04-07T10:41:35;16.30;61.70
21387;DHT22;10854;45.922;6.716;2023-04-07T10:44:07;16.50;61.50
21387;DHT22;10854;45.922;6.716;2023-04-07T10:47:03;16.90;61.70
21387;DHT22;10854;45.922;6.716;2023-04-07T10:49:34;17.40;61.70
21387;DHT22;10854;45.922;6.716;2023-04-07T10:52:23;17.60;61.50
21387;DHT22;10854;45.922;6.716;2023-04-07T10:55:28;17.40;59.80
21387;DHT22;10854;45.922;6.716;2023-04-07T10:58:20;17.00;59.40
21387;DHT22;10854;45.922;6.716;2023-04-07T11:03:55;16.50;59.50
21387;DHT22;10854;45.922;6.716;2023-04-07T11:06:24;16.70;59.40
21387;DHT22;10854;45.922;6.716;2023-04-07T11:08:54;16.80;58.40
21387;DHT22;10854;45.922;6.716;2023-04-07T11:11:39;16.70;58.30
21387;DHT22;10854;45.922;6.716;2023-04-07T11:14:08;16.60;56.40
21387;DHT22;10854;45.922;6.716;2023-04-07T11:16:42;16.00;56.30
21387;DHT22;10854;45.922;6.716;2023-04-07T11:19:12;15.40;57.60
21387;DHT22;10854;45.922;6.716;2023-04-07T11:21:40;15.50;58.70
21387;DHT22;10854;45.922;6.716;2023-04-07T11:24:08;16.10;58.50
21387;DHT22;10854;45.922;6.716;2023-04-07T11:26:39;16.70;57.90
21387;DHT22;10854;45.922;6.716;2023-04-07T11:29:10;17.20;57.80
21387;DHT22;10854;45.922;6.716;2023-04-07T11:31:38;17.70;57.20
21387;DHT22;10854;45.922;6.716;2023-04-07T11:34:07;18.20;56.50
21387;DHT22;10854;45.922;6.716;2023-04-07T11:36:40;18.60;55.20
21387;DHT22;10854;45.922;6.716;2023-04-07T11:39:27;19.10;54.40
21387;DHT22;10854;45.922;6.716;2023-04-07T11:41:58;19.30;52.50
21387;DHT22;10854;45.922;6.716;2023-04-07T11:44:27;19.40;52.90
21387;DHT22;10854;45.922;6.716;2023-04-07T11:46:59;19.70;53.30
21387;DHT22;10854;45.922;6.716;2023-04-07T11:49:30;19.80;52.80
21387;DHT22;10854;45.922;6.716;2023-04-07T11:52:06;19.80;52.10
21387;DHT22;10854;45.922;6.716;2023-04-07T11:54:42;19.80;51.60
21387;DHT22;10854;45.922;6.716;2023-04-07T11:57:11;19.90;51.80
21387;DHT22;10854;45.922;6.716;2023-04-07T11:59:40;20.30;52.60
21387;DHT22;10854;45.922;6.716;2023-04-07T12:02:09;20.60;51.30
21387;DHT22;10854;45.922;6.716;2023-04-07T12:04:37;20.50;49.90
21387;DHT22;10854;45.922;6.716;2023-04-07T12:07:10;20.30;49.50
21387;DHT22;10854;45.922;6.716;2023-04-07T12:09:39;20.00;49.50
21387;DHT22;10854;45.922;6.716;2023-04-07T12:12:07;19.50;50.40
21387;DHT22;10854;45.922;6.716;2023-04-07T12:14:37;19.00;51.30
21387;DHT22;10854;45.922;6.716;2023-04-07T12:17:22;18.30;51.50
21387;DHT22;10854;45.922;6.716;2023-04-07T12:19:51;17.50;51.90
21387;DHT22;10854;45.922;6.716;2023-04-07T12:22:20;16.70;52.60
21387;DHT22;10854;45.922;6.716;2023-04-07T12:24:48;16.00;53.60
21387;DHT22;10854;45.922;6.716;2023-04-07T12:27:16;15.50;54.80
21387;DHT22;10854;45.922;6.716;2023-04-07T12:29:45;14.90;55.80
21387;DHT22;10854;45.922;6.716;2023-04-07T12:32:13;14.60;57.30
21387;DHT22;10854;45.922;6.716;2023-04-07T12:34:41;14.50;58.30
21387;DHT22;10854;45.922;6.716;2023-04-07T12:37:10;14.60;57.20
21387;DHT22;10854;45.922;6.716;2023-04-07T12:39:39;15.20;56.20
21387;DHT22;10854;45.922;6.716;2023-04-07T12:42:08;16.40;54.10
21387;DHT22;10854;45.922;6.716;2023-04-07T12:44:38;17.70;51.90
21387;DHT22;10854;45.922;6.716;2023-04-07T12:47:07;18.50;50.10
21387;DHT22;10854;45.922;6.716;2023-04-07T12:49:35;19.10;49.70
21387;DHT22;10854;45.922;6.716;2023-04-07T12:52:04;19.60;49.30
21387;DHT22;10854;45.922;6.716;2023-04-07T12:54:33;19.60;48.40
21387;DHT22;10854;45.922;6.716;2023-04-07T12:57:02;18.90;47.60
21387;DHT22;10854;45.922;6.716;2023-04-07T12:59:30;18.20;48.00
21387;DHT22;10854;45.922;6.716;2023-04-07T13:01:59;17.30;48.60
21387;DHT22;10854;45.922;6.716;2023-04-07T13:04:27;16.50;50.00
21387;DHT22;10854;45.922;6.716;2023-04-07T13:06:58;15.90;49.40
21387;DHT22;10854;45.922;6.716;2023-04-07T13:09:26;15.20;53.30
21387;DHT22;10854;45.922;6.716;2023-04-07T13:11:57;14.80;58.20
21387;DHT22;10854;45.922;6.716;2023-04-07T13:14:26;14.50;59.00
21387;DHT22;10854;45.922;6.716;2023-04-07T13:16:54;14.30;60.30
21387;DHT22;10854;45.922;6.716;2023-04-07T13:19:23;14.30;60.30
21387;DHT22;10854;45.922;6.716;2023-04-07T13:21:51;14.20;59.80
21387;DHT22;10854;45.922;6.716;2023-04-07T13:24:19;14.60;58.00
21387;DHT22;10854;45.922;6.716;2023-04-07T13:26:48;15.20;58.20
21387;DHT22;10854;45.922;6.716;2023-04-07T13:29:17;15.50;57.30
21387;DHT22;10854;45.922;6.716;2023-04-07T13:31:46;15.30;56.30
21387;DHT22;10854;45.922;6.716;2023-04-07T13:34:15;15.00;56.70
21387;DHT22;10854;45.922;6.716;2023-04-07T13:36:43;15.00;57.30
21387;DHT22;10854;45.922;6.716;2023-04-07T13:39:12;14.90;56.90
21387;DHT22;10854;45.922;6.716;2023-04-07T13:41:40;14.70;56.60
21387;DHT22;10854;45.922;6.716;2023-04-07T13:44:09;14.40;56.80
21387;DHT22;10854;45.922;6.716;2023-04-07T13:46:37;14.30;57.80
21387;DHT22;10854;45.922;6.716;2023-04-07T13:49:05;14.10;57.70
21387;DHT22;10854;45.922;6.716;2023-04-07T13:51:35;13.30;58.00
21387;DHT22;10854;45.922;6.716;2023-04-07T13:54:03;12.60;59.60
21387;DHT22;10854;45.922;6.716;2023-04-07T13:56:32;12.20;61.00
21387;DHT22;10854;45.922;6.716;2023-04-07T13:59:02;11.80;62.80
21387;DHT22;10854;45.922;6.716;2023-04-07T14:01:31;11.70;63.70
21387;DHT22;10854;45.922;6.716;2023-04-07T14:04:01;11.40;64.40
21387;DHT22;10854;45.922;6.716;2023-04-07T14:06:29;11.30;64.80
21387;DHT22;10854;45.922;6.716;2023-04-07T14:08:58;11.40;65.00
21387;DHT22;10854;45.922;6.716;2023-04-07T14:11:27;11.50;65.00
21387;DHT22;10854;45.922;6.716;2023-04-07T14:13:55;11.60;65.10
21387;DHT22;10854;45.922;6.716;2023-04-07T14:16:24;11.70;65.20
21387;DHT22;10854;45.922;6.716;2023-04-07T14:18:53;11.90;64.90
21387;DHT22;10854;45.922;6.716;2023-04-07T14:21:23;12.10;64.20
21387;DHT22;10854;45.922;6.716;2023-04-07T14:23:52;12.00;63.70
21387;DHT22;10854;45.922;6.716;2023-04-07T14:26:20;11.80;64.90
21387;DHT22;10854;45.922;6.716;2023-04-07T14:28:49;11.50;64.70
21387;DHT22;10854;45.922;6.716;2023-04-07T14:31:18;11.10;65.10
21387;DHT22;10854;45.922;6.716;2023-04-07T14:33:48;10.90;66.80
21387;DHT22;10854;45.922;6.716;2023-04-07T14:36:17;10.60;67.20
21387;DHT22;10854;45.922;6.716;2023-04-07T14:38:46;10.40;68.50
21387;DHT22;10854;45.922;6.716;2023-04-07T14:41:14;10.30;69.30
21387;DHT22;10854;45.922;6.716;2023-04-07T14:43:43;10.20;69.50
21387;DHT22;10854;45.922;6.716;2023-04-07T14:46:12;10.10;70.40
21387;DHT22;10854;45.922;6.716;2023-04-07T14:48:41;10.00;70.40
21387;DHT22;10854;45.922;6.716;2023-04-07T14:51:12;9.90;72.10
21387;DHT22;10854;45.922;6.716;2023-04-07T14:53:41;9.90;72.00
21387;DHT22;10854;45.922;6.716;2023-04-07T14:56:11;9.80;72.00
21387;DHT22;10854;45.922;6.716;2023-04-07T14:58:39;9.90;72.80
21387;DHT22;10854;45.922;6.716;2023-04-07T15:01:07;9.80;72.60
21387;DHT22;10854;45.922;6.716;2023-04-07T15:03:37;9.80;72.90
21387;DHT22;10854;45.922;6.716;2023-04-07T15:06:06;9.80;72.80
21387;DHT22;10854;45.922;6.716;2023-04-07T15:08:36;9.70;73.20
21387;DHT22;10854;45.922;6.716;2023-04-07T15:11:08;9.60;74.40
21387;DHT22;10854;45.922;6.716;2023-04-07T15:13:36;9.60;73.70
21387;DHT22;10854;45.922;6.716;2023-04-07T15:16:09;9.60;74.10
21387;DHT22;10854;45.922;6.716;2023-04-07T15:18:42;9.50;74.30
21387;DHT22;10854;45.922;6.716;2023-04-07T15:21:12;9.30;73.80
21387;DHT22;10854;45.922;6.716;2023-04-07T15:23:41;9.00;73.60
21387;DHT22;10854;45.922;6.716;2023-04-07T15:26:09;8.80;75.20
21387;DHT22;10854;45.922;6.716;2023-04-07T15:28:38;8.50;76.20
21387;DHT22;10854;45.922;6.716;2023-04-07T15:31:06;8.30;77.70
21387;DHT22;10854;45.922;6.716;2023-04-07T15:33:37;8.10;79.50
21387;DHT22;10854;45.922;6.716;2023-04-07T15:36:06;8.10;80.70
21387;DHT22;10854;45.922;6.716;2023-04-07T15:38:36;8.10;81.50
21387;DHT22;10854;45.922;6.716;2023-04-07T15:41:06;8.40;82.20
21387;DHT22;10854;45.922;6.716;2023-04-07T15:43:35;8.80;82.60
21387;DHT22;10854;45.922;6.716;2023-04-07T15:46:04;9.10;81.90
21387;DHT22;10854;45.922;6.716;2023-04-07T15:48:34;9.20;81.00
21387;DHT22;10854;45.922;6.716;2023-04-07T15:51:02;9.30;79.10
21387;DHT22;10854;45.922;6.716;2023-04-07T15:53:31;9.30;78.90
21387;DHT22;10854;45.922;6.716;2023-04-07T15:55:59;9.20;78.30
21387;DHT22;10854;45.922;6.716;2023-04-07T15:58:29;9.10;77.10
21387;DHT22;10854;45.922;6.716;2023-04-07T16:00:58;9.00;77.20
21387;DHT22;10854;45.922;6.716;2023-04-07T16:03:27;9.00;77.20
21387;DHT22;10854;45.922;6.716;2023-04-07T16:05:56;9.10;77.30
21387;DHT22;10854;45.922;6.716;2023-04-07T16:08:26;9.40;76.50
21387;DHT22;10854;45.922;6.716;2023-04-07T16:10:54;9.80;75.90
21387;DHT22;10854;45.922;6.716;2023-04-07T16:13:24;10.50;72.10